Time;durP1;ratioP1;P1;durP2;ratioP2;P2;SDS_P1;SDS_P2;PMS_P1;PMS_P2;Temp;Humidity;BMP_temperature;BMP_pressure;BME280_temperature;BME280_humidity;BME280_pressure;Samples;Min_cycle;Max_cycle;Signal;HPM_P1;HPM_P2
2022/12/20 00:01:11;;;;;;;6.75;3.75;;;11.10;99.90;;;;;;5054178;28;20055;-66
2022/12/20 00:03:37;;;;;;;6.20;3.60;;;11.20;99.90;;;;;;5035795;28;20412;-67
2022/12/20 00:06:03;;;;;;;6.95;3.58;;;11.30;99.90;;;;;;5016654;28;20515;-66
2022/12/20 00:08:30;;;;;;;8.07;4.22;;;;;;;;;;5034215;28;20128;-67
2022/12/20 00:10:55;;;;;;;6.75;3.70;;;11.10;99.90;;;;;;5041203;28;20036;-67
2022/12/20 00:13:21;;;;;;;6.90;3.80;;;11.00;99.90;;;;;;5036344;28;20120;-67
2022/12/20 00:15:47;;;;;;;9.40;4.00;;;10.90;99.90;;;;;;5053891;28;20525;-67
2022/12/20 00:18:13;;;;;;;6.78;3.63;;;11.20;99.90;;;;;;5053739;28;20044;-67
2022/12/20 00:20:38;;;;;;;8.20;3.67;;;11.30;99.90;;;;;;5036031;28;20038;-67
2022/12/20 00:23:04;;;;;;;7.53;3.42;;;11.20;99.90;;;;;;5033955;28;20084;-67
2022/12/20 00:25:30;;;;;;;7.20;3.85;;;;;;;;;;5016150;28;20119;-67
2022/12/20 00:27:56;;;;;;;8.10;3.60;;;11.40;99.90;;;;;;5040457;28;20417;-67
2022/12/20 00:30:22;;;;;;;6.10;3.50;;;11.30;99.90;;;;;;5054556;28;20097;-66
2022/12/20 00:32:47;;;;;;;7.13;3.78;;;11.20;99.90;;;;;;5053985;28;20402;-66
2022/12/20 00:35:13;;;;;;;6.00;3.40;;;11.20;99.90;;;;;;5053965;28;20048;-67
2022/12/20 00:37:39;;;;;;;7.60;3.75;;;11.30;99.90;;;;;;5035137;28;20466;-67
2022/12/20 00:40:05;;;;;;;5.65;3.50;;;11.20;99.90;;;;;;5034475;28;20045;-67
2022/12/20 00:42:32;;;;;;;7.20;3.40;;;11.30;99.90;;;;;;5039129;28;20388;-66
2022/12/20 00:44:58;;;;;;;5.97;3.30;;;;;;;;;;5053555;28;20111;-66
2022/12/20 00:47:23;;;;;;;6.72;3.45;;;11.20;99.90;;;;;;5053772;28;20048;-67
2022/12/20 00:49:49;;;;;;;7.78;3.75;;;11.20;99.90;;;;;;5053753;28;20407;-67
2022/12/20 00:52:15;;;;;;;7.47;3.38;;;11.00;99.90;;;;;;5053547;28;20033;-67
2022/12/20 00:54:40;;;;;;;6.63;3.40;;;11.30;99.90;;;;;;5035149;28;20053;-67
2022/12/20 00:57:06;;;;;;;6.97;3.60;;;11.50;99.90;;;;;;5033557;28;20041;-67
2022/12/20 00:59:32;;;;;;;8.02;3.47;;;11.30;99.90;;;;;;5033659;28;20095;-67
2022/12/20 01:01:58;;;;;;;7.40;3.40;;;11.30;99.90;;;;;;5040224;28;20045;-67
2022/12/20 01:04:24;;;;;;;5.60;3.30;;;11.20;99.90;;;;;;5053447;28;20440;-67
2022/12/20 01:06:50;;;;;;;5.70;3.58;;;11.30;99.90;;;;;;5053572;28;20045;-67
2022/12/20 01:09:16;;;;;;;7.25;3.50;;;;;;;;;;5053161;28;20467;-67
2022/12/20 01:11:42;;;;;;;6.70;3.40;;;11.40;99.90;;;;;;5050697;28;20041;-67
2022/12/20 01:14:11;;;;;;;5.63;3.03;;;10.90;99.90;;;;;;5053466;28;20045;-67
2022/12/20 01:16:38;;;;;;;5.93;3.40;;;11.60;99.90;;;;;;5053407;28;20512;-67
2022/12/20 01:19:04;;;;;;;7.47;3.42;;;;;;;;;;5052969;28;20090;-67
2022/12/20 01:21:30;;;;;;;7.88;3.42;;;11.30;99.90;;;;;;5053423;28;20048;-67
2022/12/20 01:23:56;;;;;;;5.82;3.10;;;11.30;99.90;;;;;;5035556;28;20049;-67
2022/12/20 01:26:23;;;;;;;6.53;3.53;;;;;;;;;;5052846;28;20139;-68
2022/12/20 01:28:51;;;;;;;5.35;3.13;;;11.60;99.90;;;;;;5033897;28;20041;-67
2022/12/20 01:31:17;;;;;;;5.97;3.40;;;11.40;99.90;;;;;;5018645;28;20050;-67
2022/12/20 01:33:44;;;;;;;7.50;3.28;;;;;;;;;;5037437;28;20107;-67
2022/12/20 01:36:15;;;;;;;6.15;3.40;;;11.40;99.90;;;;;;5045679;28;20397;-67
2022/12/20 01:38:41;;;;;;;7.53;3.28;;;11.20;99.90;;;;;;5057288;28;20045;-66
2022/12/20 01:41:07;;;;;;;5.38;3.42;;;11.20;99.90;;;;;;5057716;28;20075;-67
2022/12/20 01:43:46;;;;;;;5.82;3.15;;;11.30;99.90;;;;;;5055979;28;20041;-67
2022/12/20 01:46:12;;;;;;;4.80;2.95;;;;;;;;;;5057138;28;20059;-67
2022/12/20 01:48:37;;;;;;;7.00;3.38;;;11.40;99.90;;;;;;5057150;28;20076;-67
2022/12/20 01:51:03;;;;;;;5.22;3.20;;;11.30;99.90;;;;;;5039017;28;20084;-67
2022/12/20 01:53:29;;;;;;;6.95;3.42;;;;;;;;;;5056789;28;20045;-67
2022/12/20 01:55:55;;;;;;;7.07;3.45;;;11.10;99.90;;;;;;5056942;28;20093;-67
2022/12/20 01:58:21;;;;;;;6.45;3.50;;;11.40;99.90;;;;;;5039018;28;20136;-66
2022/12/20 02:00:47;;;;;;;6.00;3.05;;;11.40;99.90;;;;;;5054017;28;20085;-67
2022/12/20 02:03:13;;;;;;;6.78;3.28;;;11.40;99.90;;;;;;5036339;28;20115;-67
2022/12/20 02:05:41;;;;;;;5.78;3.55;;;11.60;99.90;;;;;;5053630;28;20131;-67
2022/12/20 02:08:07;;;;;;;5.30;3.10;;;11.40;99.90;;;;;;5056793;28;20399;-67
2022/12/20 02:11:06;;;;;;;6.88;3.25;;;11.40;99.90;;;;;;5056505;28;20044;-67
2022/12/20 02:13:57;;;;;;;5.30;3.22;;;11.60;99.90;;;;;;5040623;28;20455;-67
2022/12/20 02:16:24;;;;;;;5.65;3.28;;;;;;;;;;5056603;28;20048;-67
2022/12/20 02:18:59;;;;;;;5.50;3.30;;;11.50;99.90;;;;;;5044734;28;20047;-67
2022/12/20 02:21:33;;;;;;;5.80;3.10;;;11.50;99.90;;;;;;5018844;28;20107;-66
2022/12/20 02:24:13;;;;;;;;;;;11.30;99.90;;;;;;5019773;28;20488;-67
2022/12/20 02:26:48;;;;;;;5.25;3.05;;;11.20;99.60;;;;;;5040674;28;19920;-67
2022/12/20 02:29:29;;;;;;;7.32;3.30;;;11.30;99.90;;;;;;5056354;28;20049;-67
2022/12/20 02:32:03;;;;;;;6.55;3.08;;;11.30;99.90;;;;;;5040328;28;20099;-66
2022/12/20 02:34:30;;;;;;;5.57;3.33;;;11.30;99.90;;;;;;5055766;28;20041;-68
2022/12/20 02:36:56;;;;;;;7.47;3.55;;;;;;;;;;5018618;28;20049;-67
2022/12/20 02:39:22;;;;;;;7.47;3.00;;;11.30;99.90;;;;;;5036268;28;20045;-67
2022/12/20 02:42:12;;;;;;;6.25;3.28;;;11.30;99.90;;;;;;5018172;28;20125;-67
2022/12/20 02:47:30;;;;;;;6.85;3.45;;;11.10;99.90;;;;;;5041055;28;20128;-67
2022/12/20 02:49:56;;;;;;;5.43;3.08;;;11.00;99.90;;;;;;5021308;28;20495;-67
2022/12/20 02:52:25;;;;;;;6.40;3.15;;;;;;;;;;5033514;28;20091;-68
2022/12/20 02:54:52;;;;;;;5.78;3.20;;;11.50;99.90;;;;;;5038309;28;20083;-65
2022/12/20 02:57:31;;;;;;;6.38;3.45;;;11.50;99.90;;;;;;5037978;28;20033;-67
2022/12/20 03:00:00;;;;;;;5.07;3.00;;;;;;;;;;5022025;28;20052;-66
2022/12/20 03:02:26;;;;;;;5.50;2.97;;;11.30;99.90;;;;;;5037536;28;20068;-66
2022/12/20 03:04:51;;;;;;;6.03;2.92;;;11.40;99.90;;;;;;5055601;28;20061;-66
2022/12/20 03:07:17;;;;;;;6.47;3.20;;;11.40;99.90;;;;;;5037623;28;20098;-66
2022/12/20 03:09:44;;;;;;;6.22;2.88;;;;;;;;;;5044621;28;20045;-66
2022/12/20 03:12:10;;;;;;;4.70;2.83;;;11.00;99.90;;;;;;5035653;28;20045;-66
2022/12/20 03:14:37;;;;;;;5.38;2.90;;;11.30;99.90;;;;;;5035757;28;20413;-67
2022/12/20 03:17:03;;;;;;;6.15;3.08;;;;;;;;;;5035262;28;20045;-67
2022/12/20 03:19:29;;;;;;;6.68;3.00;;;;;;;;;;5054450;28;20048;-67
2022/12/20 03:21:55;;;;;;;7.95;3.15;;;11.40;99.90;;;;;;5056227;28;20045;-67
2022/12/20 03:24:21;;;;;;;5.63;3.08;;;;;;;;;;5055275;28;20371;-65
2022/12/20 03:26:47;;;;;;;6.35;3.25;;;11.40;99.90;;;;;;5043466;28;20076;-66
2022/12/20 03:29:13;;;;;;;5.95;2.80;;;11.30;99.90;;;;;;5035331;28;20037;-66
2022/12/20 03:31:38;;;;;;;5.25;2.90;;;11.30;99.90;;;;;;5035253;28;20128;-66
2022/12/20 03:34:05;;;;;;;7.07;2.88;;;11.40;99.90;;;;;;5035215;28;20445;-66
2022/12/20 03:36:30;;;;;;;4.80;2.88;;;11.30;99.90;;;;;;5054735;28;20044;-66
2022/12/20 03:38:56;;;;;;;5.53;2.85;;;11.50;99.90;;;;;;5055007;28;20033;-67
2022/12/20 03:41:22;;;;;;;6.25;2.75;;;11.40;99.90;;;;;;5055008;28;20471;-67
2022/12/20 03:43:48;;;;;;;7.57;3.05;;;11.40;99.90;;;;;;5053742;28;20398;-67
2022/12/20 03:46:14;;;;;;;5.95;2.88;;;11.00;99.90;;;;;;5054923;28;20045;-66
2022/12/20 03:48:40;;;;;;;6.43;2.97;;;11.70;99.90;;;;;;5055710;28;20383;-67
2022/12/20 03:51:05;;;;;;;6.53;2.95;;;11.50;99.90;;;;;;5054763;28;20457;-66
2022/12/20 03:53:31;;;;;;;5.38;2.92;;;11.30;99.90;;;;;;5054079;28;20103;-65
2022/12/20 03:55:57;;;;;;;6.72;3.15;;;;;;;;;;5054351;28;20052;-64
2022/12/20 03:58:23;;;;;;;7.28;3.67;;;11.40;99.90;;;;;;5054535;28;20406;-66
2022/12/20 04:00:49;;;;;;;5.90;3.22;;;11.30;99.90;;;;;;5043030;28;20048;-67
2022/12/20 04:03:15;;;;;;;5.80;2.72;;;11.70;99.90;;;;;;5034146;28;20061;-66
2022/12/20 04:05:40;;;;;;;5.38;2.63;;;11.30;99.90;;;;;;5016549;28;20140;-66
2022/12/20 04:08:07;;;;;;;5.60;3.00;;;;;;;;;;5034570;28;20041;-67
2022/12/20 04:11:14;;;;;;;7.30;3.13;;;11.20;99.90;;;;;;5053885;28;20049;-66
2022/12/20 04:13:18;;;;;;;6.57;2.80;;;11.50;99.90;;;;;;5053708;28;20146;-67
2022/12/20 04:15:44;;;;;;;5.63;2.88;;;11.20;99.90;;;;;;5054327;28;20080;-66
2022/12/20 04:18:09;;;;;;;6.68;3.15;;;11.40;99.90;;;;;;5039997;28;20530;-66
2022/12/20 04:20:35;;;;;;;5.60;2.78;;;11.40;99.90;;;;;;5035074;28;20125;-66
2022/12/20 04:23:01;;;;;;;8.10;2.90;;;11.40;99.90;;;;;;5016369;28;20484;-66
2022/12/20 04:25:27;;;;;;;6.45;2.83;;;11.40;99.90;;;;;;5036838;28;20049;-67
2022/12/20 04:27:52;;;;;;;5.43;3.00;;;11.40;99.90;;;;;;5053981;28;20032;-66
2022/12/20 04:30:18;;;;;;;5.00;2.80;;;11.40;99.90;;;;;;5054116;28;20041;-67
2022/12/20 04:32:44;;;;;;;5.75;2.80;;;11.40;99.90;;;;;;5035931;28;20517;-66
2022/12/20 04:35:10;;;;;;;5.15;2.72;;;11.60;99.90;;;;;;5039366;28;20376;-66
2022/12/20 04:37:35;;;;;;;6.90;3.08;;;11.00;99.90;;;;;;5034064;28;20471;-66
2022/12/20 04:40:01;;;;;;;6.20;3.03;;;11.60;99.90;;;;;;5033665;28;20103;-66
2022/12/20 04:42:27;;;;;;;5.38;2.90;;;11.50;99.90;;;;;;5038483;28;20037;-67
2022/12/20 04:44:53;;;;;;;7.15;3.13;;;11.40;99.90;;;;;;5053751;28;20052;-66
2022/12/20 04:47:18;;;;;;;7.65;2.97;;;11.60;99.90;;;;;;5053841;28;20037;-67
2022/12/20 04:49:44;;;;;;;4.75;2.53;;;11.50;99.90;;;;;;5053770;28;20471;-67
2022/12/20 04:54:54;;;;;;;6.93;2.80;;;;;;;;;;5053629;28;20087;-67
2022/12/20 04:57:20;;;;;;;6.55;2.95;;;11.50;99.90;;;;;;5053208;28;20041;-67
2022/12/20 04:59:46;;;;;;;5.13;2.72;;;11.30;99.90;;;;;;5053531;28;20041;-66
2022/12/20 05:02:11;;;;;;;5.03;2.90;;;11.40;99.90;;;;;;5053378;28;20069;-67
2022/12/20 05:04:37;;;;;;;5.43;2.80;;;11.30;99.90;;;;;;5052499;28;20483;-66
2022/12/20 05:07:03;;;;;;;5.57;2.85;;;11.50;99.90;;;;;;5053374;28;20045;-66
2022/12/20 05:09:29;;;;;;;5.10;2.80;;;11.40;99.90;;;;;;5036390;28;20049;-67
2022/12/20 05:11:54;;;;;;;4.75;2.38;;;11.50;99.90;;;;;;5052849;28;20037;-67
2022/12/20 05:14:20;;;;;;;5.20;2.88;;;11.50;99.90;;;;;;5053472;28;20541;-67
2022/12/20 05:16:46;;;;;;;6.80;3.17;;;11.20;99.90;;;;;;5053340;28;20040;-67
2022/12/20 05:19:12;;;;;;;6.43;2.90;;;11.40;99.90;;;;;;5053985;28;20355;-66
2022/12/20 05:27:06;;;;;;;6.70;3.28;;;11.40;99.90;;;;;;5033320;28;20042;-67
2022/12/20 05:29:32;;;;;;;5.70;2.90;;;11.50;99.90;;;;;;5033103;28;20045;-67
2022/12/20 05:31:57;;;;;;;5.65;3.30;;;11.50;99.90;;;;;;5033706;28;20046;-67
2022/12/20 05:34:23;;;;;;;6.30;3.05;;;11.40;99.90;;;;;;5043581;28;20049;-66
2022/12/20 05:36:49;;;;;;;5.55;2.80;;;11.60;99.90;;;;;;5052939;28;20037;-67
2022/12/20 05:39:15;;;;;;;5.45;2.90;;;11.50;99.90;;;;;;5052990;28;20133;-67
2022/12/20 05:41:41;;;;;;;7.97;3.00;;;11.50;99.90;;;;;;5033185;28;20045;-66
2022/12/20 05:44:06;;;;;;;5.75;2.92;;;11.40;99.90;;;;;;5032927;28;20045;-66
2022/12/20 05:46:32;;;;;;;5.82;3.20;;;11.40;99.90;;;;;;5033341;28;20132;-67
2022/12/20 05:48:58;;;;;;;5.05;2.78;;;11.30;99.90;;;;;;5033250;28;20042;-67
2022/12/20 05:51:24;;;;;;;6.80;2.75;;;11.50;99.90;;;;;;5043597;28;20049;-67
2022/12/20 05:53:50;;;;;;;6.07;2.88;;;11.50;99.90;;;;;;5034882;28;20051;-67
2022/12/20 05:56:15;;;;;;;8.18;3.03;;;11.20;99.90;;;;;;5052899;28;20045;-67
2022/12/20 05:58:41;;;;;;;5.82;2.95;;;11.50;99.90;;;;;;5050744;28;20041;-67
2022/12/20 06:01:07;;;;;;;5.13;2.88;;;11.50;99.90;;;;;;5015414;28;20050;-68
2022/12/20 06:03:33;;;;;;;5.63;3.10;;;11.50;99.90;;;;;;5032842;28;20049;-67
2022/12/20 06:05:59;;;;;;;5.18;2.80;;;11.80;99.90;;;;;;5032999;28;20484;-67
2022/12/20 06:08:25;;;;;;;5.32;2.92;;;11.60;99.90;;;;;;5025770;28;20052;-68
2022/12/20 06:10:50;;;;;;;5.35;2.60;;;11.50;99.90;;;;;;5052992;28;20442;-65
2022/12/20 06:13:16;;;;;;;5.55;2.78;;;11.30;99.90;;;;;;5052567;28;20099;-67
2022/12/20 06:15:42;;;;;;;5.80;2.45;;;11.20;99.90;;;;;;5050288;28;20296;-66
2022/12/20 06:18:08;;;;;;;6.72;2.88;;;11.60;99.90;;;;;;5018770;28;20132;-66
2022/12/20 06:20:34;;;;;;;4.97;2.55;;;11.50;99.90;;;;;;5036628;28;20092;-66
2022/12/20 06:23:00;;;;;;;6.20;2.70;;;11.60;99.90;;;;;;5036600;28;20037;-66
2022/12/20 06:25:26;;;;;;;5.38;2.85;;;11.60;99.90;;;;;;5046925;28;20045;-66
2022/12/20 06:27:52;;;;;;;6.10;2.72;;;11.20;99.90;;;;;;5056315;28;20041;-66
2022/12/20 06:30:18;;;;;;;5.03;2.67;;;11.70;99.90;;;;;;5056366;28;20388;-66
2022/12/20 06:32:44;;;;;;;5.82;2.58;;;11.70;99.90;;;;;;5053590;28;20029;-67
2022/12/20 06:35:10;;;;;;;5.28;2.55;;;11.60;99.90;;;;;;5036090;28;20057;-67
2022/12/20 06:37:36;;;;;;;6.57;2.95;;;11.50;99.90;;;;;;5036311;28;20104;-67
2022/12/20 06:40:02;;;;;;;6.65;2.53;;;11.60;99.90;;;;;;5036242;28;20084;-66
2022/12/20 06:42:29;;;;;;;4.50;2.70;;;;;;;;;;5047045;28;20075;-67
2022/12/20 06:44:55;;;;;;;5.50;2.70;;;11.60;99.90;;;;;;5055681;28;20055;-67
2022/12/20 06:47:20;;;;;;;6.05;3.08;;;11.60;99.90;;;;;;5056076;28;20044;-67
2022/12/20 06:49:46;;;;;;;5.80;2.60;;;11.60;99.90;;;;;;5052989;28;20388;-67
2022/12/20 06:52:12;;;;;;;5.95;2.67;;;11.70;99.90;;;;;;5036076;28;20116;-66
2022/12/20 06:54:38;;;;;;;4.95;2.58;;;11.60;99.90;;;;;;5035626;28;20041;-67
2022/12/20 06:57:03;;;;;;;6.97;2.80;;;11.60;99.90;;;;;;5035723;28;20048;-66
2022/12/20 06:59:29;;;;;;;7.13;2.53;;;11.70;99.90;;;;;;5047043;28;20479;-67
2022/12/20 07:01:55;;;;;;;5.45;2.67;;;11.80;99.90;;;;;;5055763;28;20041;-66
2022/12/20 07:04:21;;;;;;;7.85;2.95;;;11.60;99.90;;;;;;5055138;28;20061;-66
2022/12/20 07:06:47;;;;;;;6.10;3.08;;;11.60;99.90;;;;;;5052202;28;20053;-67
2022/12/20 07:09:12;;;;;;;5.13;2.42;;;11.50;99.90;;;;;;5036221;28;20080;-67
2022/12/20 07:11:38;;;;;;;5.47;2.83;;;11.60;99.90;;;;;;5035750;28;20494;-67
2022/12/20 07:14:04;;;;;;;6.30;2.58;;;11.40;99.90;;;;;;5045406;28;20443;-66
2022/12/20 07:16:31;;;;;;;6.45;2.90;;;11.60;99.90;;;;;;5055426;28;20095;-68
2022/12/20 07:18:56;;;;;;;6.07;3.03;;;11.80;99.90;;;;;;5055450;28;20406;-66
2022/12/20 07:21:22;;;;;;;5.55;2.90;;;11.70;99.90;;;;;;5057380;28;20029;-67
2022/12/20 07:23:48;;;;;;;6.30;2.85;;;;;;;;;;5064762;28;20589;-67
2022/12/20 07:26:14;;;;;;;5.13;2.80;;;11.50;99.90;;;;;;5035110;28;20052;-67
2022/12/20 07:28:42;;;;;;;5.63;2.67;;;11.60;99.90;;;;;;5034487;28;20412;-67
2022/12/20 07:31:09;;;;;;;5.05;2.63;;;11.80;99.90;;;;;;5034916;28;20045;-68
2022/12/20 07:33:37;;;;;;;6.18;3.05;;;11.70;99.90;;;;;;5065040;28;20116;-67
2022/12/20 07:36:07;;;;;;;6.00;2.50;;;11.90;99.90;;;;;;5072209;28;20475;-67
2022/12/20 07:38:34;;;;;;;5.57;3.20;;;11.70;99.90;;;;;;5056860;28;20386;-67
2022/12/20 07:41:00;;;;;;;6.40;3.30;;;11.60;99.90;;;;;;5065463;28;20045;-69
2022/12/20 07:43:26;;;;;;;6.15;2.78;;;11.90;99.90;;;;;;5017079;28;20119;-68
2022/12/20 07:45:55;;;;;;;5.60;2.83;;;11.80;99.90;;;;;;5035252;28;20053;-68
2022/12/20 07:48:23;;;;;;;5.43;2.70;;;11.90;99.90;;;;;;5065642;28;20064;-67
2022/12/20 07:50:55;;;;;;;4.68;2.67;;;11.80;99.90;;;;;;5074483;28;20044;-67
2022/12/20 07:53:21;;;;;;;5.82;2.90;;;11.90;99.90;;;;;;5074749;28;20048;-67
2022/12/20 07:55:46;;;;;;;6.20;2.75;;;11.90;99.90;;;;;;5054695;28;20044;-67
2022/12/20 07:58:12;;;;;;;7.05;3.00;;;11.90;99.90;;;;;;5057854;28;20053;-67
2022/12/20 08:00:38;;;;;;;5.47;3.03;;;;;;;;;;5017084;28;20041;-67
2022/12/20 08:03:25;;;;;;;5.72;3.00;;;11.90;99.90;;;;;;5000101;28;20049;-66
2022/12/20 08:05:52;;;;;;;5.85;3.00;;;;;;;;;;5034192;28;20533;-67
2022/12/20 08:08:18;;;;;;;5.53;3.08;;;11.80;99.90;;;;;;5050220;28;20395;-67
2022/12/20 08:10:44;;;;;;;5.78;3.00;;;11.90;99.90;;;;;;5074406;28;20037;-67
2022/12/20 08:13:09;;;;;;;5.43;2.90;;;11.80;99.90;;;;;;5074016;28;20509;-66
2022/12/20 08:15:35;;;;;;;6.80;3.33;;;12.10;99.90;;;;;;5054372;28;20037;-67
2022/12/20 08:18:01;;;;;;;6.18;3.35;;;11.90;99.90;;;;;;5020456;28;20072;-67
2022/12/20 08:20:27;;;;;;;6.75;3.10;;;;;;;;;;5072995;28;20119;-67
2022/12/20 08:22:53;;;;;;;5.90;3.35;;;;;;;;;;5073826;28;20044;-67
2022/12/20 08:25:20;;;;;;;7.38;3.50;;;;;;;;;;5074159;28;20049;-66
2022/12/20 08:27:46;;;;;;;5.57;2.95;;;12.00;99.90;;;;;;5073954;28;20041;-67
2022/12/20 08:30:12;;;;;;;6.90;3.05;;;11.90;99.90;;;;;;5060404;28;20476;-67
2022/12/20 08:32:38;;;;;;;6.57;3.30;;;11.80;99.90;;;;;;5062618;28;20119;-68
2022/12/20 08:35:04;;;;;;;5.32;3.30;;;11.90;99.90;;;;;;5069281;28;20120;-67
2022/12/20 08:37:30;;;;;;;7.35;3.75;;;11.90;99.90;;;;;;5073475;28;20044;-67
2022/12/20 08:39:56;;;;;;;5.45;2.92;;;12.00;99.90;;;;;;5069803;28;20367;-66
2022/12/20 08:42:22;;;;;;;6.60;3.60;;;11.90;99.90;;;;;;5073884;28;20444;-67
2022/12/20 08:44:48;;;;;;;5.32;3.10;;;12.00;99.90;;;;;;5073422;28;20501;-67
2022/12/20 08:47:14;;;;;;;6.25;3.33;;;12.10;99.90;;;;;;5073816;28;20040;-67
2022/12/20 08:49:40;;;;;;;5.60;3.08;;;11.60;99.90;;;;;;5060141;28;20442;-67
2022/12/20 08:52:05;;;;;;;5.15;3.03;;;11.90;99.90;;;;;;5053453;28;20045;-68
2022/12/20 08:54:31;;;;;;;5.93;3.50;;;12.00;99.90;;;;;;5053413;28;20037;-67
2022/12/20 08:56:57;;;;;;;7.55;3.28;;;11.70;99.90;;;;;;5070170;28;20105;-66
2022/12/20 08:59:23;;;;;;;6.57;3.22;;;12.10;99.90;;;;;;5071062;28;20051;-67
2022/12/20 09:01:49;;;;;;;6.00;3.03;;;12.00;99.90;;;;;;5074162;28;20044;-67
2022/12/20 09:04:15;;;;;;;5.25;2.90;;;12.00;99.90;;;;;;5071971;28;20056;-67
2022/12/20 09:06:40;;;;;;;6.38;3.10;;;12.10;99.90;;;;;;5047824;28;20083;-68
2022/12/20 09:09:06;;;;;;;11.10;3.20;;;12.00;99.90;;;;;;5033337;28;20038;-67
2022/12/20 09:11:32;;;;;;;5.50;3.05;;;12.30;99.90;;;;;;5060189;28;20048;-67
2022/12/20 09:13:58;;;;;;;5.30;3.25;;;12.00;99.90;;;;;;5073164;28;20045;-67
2022/12/20 09:16:29;;;;;;;6.80;3.33;;;12.10;99.90;;;;;;5073160;28;20084;-67
2022/12/20 09:18:55;;;;;;;6.50;2.83;;;;;;;;;;5073220;28;20141;-64
2022/12/20 09:21:22;;;;;;;7.78;3.00;;;12.20;99.90;;;;;;5069243;28;20052;-67
2022/12/20 09:23:52;;;;;;;4.40;2.67;;;12.20;99.90;;;;;;5042851;28;20463;-67
2022/12/20 09:26:18;;;;;;;5.30;2.90;;;12.10;99.90;;;;;;5033155;28;20046;-68
2022/12/20 09:28:44;;;;;;;4.85;2.95;;;12.10;99.90;;;;;;5033441;28;20056;-67
2022/12/20 09:31:11;;;;;;;7.75;3.08;;;;;;;;;;5058265;28;20053;-67
2022/12/20 09:33:37;;;;;;;7.70;3.20;;;12.10;99.90;;;;;;5067042;28;20128;-67
2022/12/20 09:36:03;;;;;;;4.38;2.50;;;12.10;99.90;;;;;;5053298;28;20198;-67
2022/12/20 09:38:30;;;;;;;5.25;2.95;;;;;;;;;;5053209;28;20037;-66
2022/12/20 09:41:03;;;;;;;5.10;2.80;;;12.10;99.90;;;;;;5040604;28;20048;-67
2022/12/20 09:43:28;;;;;;;;;;;12.20;99.90;;;;;;5016852;28;20049;-67
2022/12/20 09:45:57;;;;;;;5.50;2.78;;;12.10;99.90;;;;;;5049536;28;20401;-67
2022/12/20 09:48:24;;;;;;;6.95;2.92;;;11.80;99.90;;;;;;5035711;28;20398;-67
2022/12/20 09:51:21;;;;;;;4.75;2.63;;;12.30;99.90;;;;;;5051286;28;20064;-65
2022/12/20 09:54:14;;;;;;;7.03;3.08;;;12.20;99.90;;;;;;5024977;28;20048;-66
2022/12/20 09:56:44;;;;;;;4.97;2.55;;;;;;;;;;5037395;28;20395;-67
2022/12/20 09:59:14;;;;;;;6.10;2.60;;;12.10;99.90;;;;;;5019112;28;20502;-66
2022/12/20 10:01:45;;;;;;;4.75;2.72;;;12.10;99.90;;;;;;5040325;28;20057;-67
2022/12/20 10:04:21;;;;;;;6.15;2.85;;;12.50;99.90;;;;;;5053289;28;20422;-67
2022/12/20 10:07:08;;;;;;;5.75;2.70;;;12.30;99.90;;;;;;5059077;28;20486;-66
2022/12/20 10:09:34;;;;;;;5.43;2.90;;;11.90;99.90;;;;;;5025628;28;20060;-66
2022/12/20 10:12:09;;;;;;;5.97;2.70;;;12.30;99.90;;;;;;5076527;28;20490;-66
2022/12/20 10:14:53;;;;;;;6.30;2.92;;;12.20;99.90;;;;;;5025189;28;20388;-66
2022/12/20 10:17:36;;;;;;;5.97;2.95;;;12.40;99.90;;;;;;5054874;28;20064;-66
2022/12/20 10:20:07;;;;;;;6.95;3.50;;;;;;;;;;5060289;28;20048;-66
2022/12/20 10:22:39;;;;;;;5.68;2.75;;;12.50;99.90;;;;;;5034925;28;20448;-65
2022/12/20 10:25:14;;;;;;;6.20;2.85;;;12.20;99.90;;;;;;5057023;28;20049;-67
2022/12/20 10:27:41;;;;;;;5.10;2.65;;;12.60;99.90;;;;;;5055997;28;20059;-66
2022/12/20 10:30:13;;;;;;;5.55;2.88;;;;;;;;;;5058115;28;20032;-66
2022/12/20 10:32:39;;;;;;;7.53;3.20;;;;;;;;;;5019816;28;20045;-67
2022/12/20 10:35:11;;;;;;;4.65;2.42;;;;;;;;;;5018662;28;20087;-66
2022/12/20 10:37:37;;;;;;;6.00;2.87;;;;;;;;;;5036177;28;20120;-67
2022/12/20 10:40:04;;;;;;;5.90;2.70;;;;;;;;;;5036162;28;20461;-66
2022/12/20 10:42:37;;;;;;;6.60;2.97;;;12.30;99.90;;;;;;5063886;28;20128;-66
2022/12/20 10:45:05;;;;;;;6.95;3.15;;;12.30;99.90;;;;;;5074818;28;20048;-66
2022/12/20 10:47:36;;;;;;;6.03;2.95;;;12.30;99.90;;;;;;5035323;28;20052;-66
2022/12/20 10:50:21;;;;;;;4.65;2.55;;;12.30;99.90;;;;;;5035852;28;20049;-66
2022/12/20 10:53:03;;;;;;;5.07;2.60;;;;;;;;;;5035952;28;20041;-66
2022/12/20 10:55:41;;;;;;;6.78;2.70;;;12.50;99.90;;;;;;5035731;28;20045;-66
2022/12/20 10:58:16;;;;;;;5.95;2.88;;;12.40;99.90;;;;;;5024600;28;20049;-66
2022/12/20 11:00:43;;;;;;;5.18;2.78;;;;;;;;;;5075643;28;20072;-66
2022/12/20 11:03:12;;;;;;;6.28;2.97;;;12.40;99.90;;;;;;5031257;28;20063;-67
2022/12/20 11:05:38;;;;;;;5.95;2.80;;;12.40;99.90;;;;;;5055472;28;20056;-67
2022/12/20 11:08:16;;;;;;;5.03;2.70;;;12.40;99.90;;;;;;5035179;28;20407;-67
2022/12/20 11:10:42;;;;;;;5.78;3.10;;;12.40;99.90;;;;;;5035593;28;20056;-67
2022/12/20 11:13:24;;;;;;;5.95;2.70;;;12.40;99.90;;;;;;5048431;28;20045;-67
2022/12/20 11:15:54;;;;;;;5.07;2.70;;;12.50;99.90;;;;;;5044873;28;20119;-67
2022/12/20 11:18:43;;;;;;;8.23;3.00;;;12.60;99.90;;;;;;5055575;28;20117;-61
2022/12/20 11:21:30;;;;;;;8.65;3.10;;;12.60;99.90;;;;;;5009825;28;20114;-67
2022/12/20 11:24:22;;;;;;;5.80;2.80;;;12.60;99.90;;;;;;5017364;28;20085;-67
2022/12/20 11:27:11;;;;;;;5.07;2.80;;;12.40;99.90;;;;;;5028699;28;20113;-67
2022/12/20 11:29:59;;;;;;;5.40;3.15;;;12.50;99.90;;;;;;5029163;28;20111;-66
2022/12/20 11:32:25;;;;;;;6.82;3.10;;;12.50;99.90;;;;;;5042737;28;20130;-67
2022/12/20 11:35:12;;;;;;;6.15;3.05;;;12.50;99.90;;;;;;5034956;28;20100;-67
2022/12/20 11:37:59;;;;;;;7.78;3.05;;;12.40;99.90;;;;;;5064444;28;20040;-67
2022/12/20 11:40:30;;;;;;;5.53;3.03;;;12.70;99.90;;;;;;5008979;28;20045;-68
2022/12/20 11:43:23;;;;;;;4.28;2.58;;;12.50;99.90;;;;;;5041859;28;20410;-67
2022/12/20 11:46:24;;;;;;;6.32;3.25;;;12.40;99.90;;;;;;5057641;28;20056;-67
2022/12/20 11:49:22;;;;;;;5.32;2.92;;;12.30;99.90;;;;;;5070381;28;20071;-68
2022/12/20 11:51:49;;;;;;;5.38;2.60;;;12.60;99.90;;;;;;4971280;28;20105;-67
2022/12/20 11:54:47;;;;;;;4.78;2.97;;;12.40;99.90;;;;;;4957668;28;20058;-67
2022/12/20 11:57:18;;;;;;;6.88;3.38;;;12.40;99.90;;;;;;4942217;29;20043;-65
2022/12/20 11:59:52;;;;;;;5.22;2.70;;;12.50;99.90;;;;;;4938607;29;20106;-68
2022/12/20 12:02:26;;;;;;;5.55;2.80;;;12.50;99.90;;;;;;4941724;28;20082;-67
2022/12/20 12:05:03;;;;;;;6.78;3.08;;;12.50;99.90;;;;;;4956880;28;20050;-67
2022/12/20 12:07:31;;;;;;;7.05;2.70;;;12.70;99.90;;;;;;4971558;28;20145;-67
2022/12/20 12:10:15;;;;;;;6.88;3.03;;;12.60;99.90;;;;;;4973433;28;20130;-67
2022/12/20 12:12:45;;;;;;;5.00;2.65;;;12.50;99.90;;;;;;4970651;28;20564;-67
2022/12/20 12:15:14;;;;;;;5.53;2.63;;;12.50;99.90;;;;;;4954185;28;20094;-68
2022/12/20 12:18:01;;;;;;;5.07;2.50;;;12.60;99.90;;;;;;4945756;28;20054;-68
2022/12/20 12:20:51;;;;;;;6.15;2.70;;;12.50;99.90;;;;;;4957174;28;20058;-68
2022/12/20 12:23:53;;;;;;;5.00;2.58;;;12.30;99.90;;;;;;4971945;28;20051;-67
2022/12/20 12:26:40;;;;;;;4.03;2.30;;;12.60;99.90;;;;;;4976809;28;20053;-68
2022/12/20 12:29:10;;;;;;;4.18;2.30;;;12.50;99.90;;;;;;5029962;28;20133;-63
2022/12/20 12:31:52;;;;;;;5.18;2.72;;;12.60;99.90;;;;;;4995547;28;20042;-68
2022/12/20 12:34:51;;;;;;;4.50;2.50;;;12.30;99.90;;;;;;5009588;28;20049;-68
2022/12/20 12:37:31;;;;;;;5.72;2.63;;;12.60;99.90;;;;;;4993478;28;20054;-68
2022/12/20 12:40:19;;;;;;;5.65;2.30;;;12.20;99.90;;;;;;4992204;28;20050;-68
2022/12/20 12:43:22;;;;;;;4.90;2.30;;;12.60;99.90;;;;;;5014010;28;20054;-68
2022/12/20 12:45:57;;;;;;;6.50;2.55;;;12.80;99.90;;;;;;4998912;28;20399;-67
2022/12/20 12:48:42;;;;;;;5.43;2.22;;;;;;;;;;4992401;28;20081;-67
2022/12/20 12:51:08;;;;;;;5.15;2.50;;;12.80;99.90;;;;;;5020024;28;20133;-67
2022/12/20 12:53:45;;;;;;;4.60;2.28;;;12.60;99.90;;;;;;5034335;28;20124;-68
2022/12/20 12:56:30;;;;;;;4.97;2.40;;;12.70;99.90;;;;;;5016366;28;20124;-67
2022/12/20 12:59:05;;;;;;;5.00;2.40;;;;;;;;;;5033735;28;20050;-67
2022/12/20 13:01:49;;;;;;;5.07;2.30;;;12.60;99.90;;;;;;5028874;28;20426;-66
2022/12/20 13:04:20;;;;;;;4.35;2.47;;;12.90;99.90;;;;;;5052265;28;20049;-67
2022/12/20 13:06:46;;;;;;;6.18;2.33;;;12.30;99.90;;;;;;5034078;28;20085;-67
2022/12/20 13:09:35;;;;;;;3.90;2.10;;;;;;;;;;5033612;28;20069;-66
2022/12/20 13:12:33;;;;;;;4.28;2.20;;;12.80;99.90;;;;;;5059885;28;20123;-69
2022/12/20 13:14:59;;;;;;;6.38;2.65;;;12.70;99.90;;;;;;5069184;28;20043;-68
2022/12/20 13:17:28;;;;;;;12.70;2.72;;;12.80;99.90;;;;;;5067018;28;20037;-71
2022/12/20 13:19:54;;;;;;;5.55;2.72;;;12.80;99.90;;;;;;5059692;28;20437;-69
2022/12/20 13:22:23;;;;;;;8.02;2.13;;;12.60;99.90;;;;;;5053595;28;20402;-67
2022/12/20 13:24:53;;;;;;;7.28;2.30;;;12.70;99.90;;;;;;5033400;28;20056;-67